Report METAR

 

LIBD - Bari/Palese Macc, Italy
Distance from station: ESE 27km
Dati ricevuti: 22/09/2021 14:20
Sereno
Sereno
 Vento da NNO
Vento: NNO 22 km/h, Raffica: 41 km/h
Temperatura: 23°C
P.to Rugiada: 9°C
Umidità: 41%
Barometro: 1020 hPa
Summary: Sereno
Visibility: superiore a 10 km
2021/09/22 12:20 LIBD 221220Z 33012G22KT 300V360 CAVOK 23/09 Q1020
LIBV - Gioia Del Colle, Italy
Distance from station: SE 63km
Dati ricevuti: 22/09/2021 13:55
Few Clouds
Few Clouds
 Vento da NNO
Vento: NNO 28 km/h
Temperatura: 22°C
P.to Rugiada: 9°C
Umidità: 44%
Barometro: 1019 hPa
Nuvole: Few Clouds
Visibility: 10 km
Cloud details: Few Clouds 1219 m
2021/09/22 11:55 LIBV 221155Z 33015KT 9999 FEW040 22/09 Q1019 RMK BKN SCT200 VIS MIN 9999 WIND THR32 35015KT WIND THR14 34017KT BLU
 
LIBA - Amendola (it-Afb, Italy
Distance from station: ONO 72km
Dati ricevuti: 22/09/2021 13:55
Few Clouds
Few Clouds
 Vento da NO
Vento: NO 28 km/h
Temperatura: 23°C
P.to Rugiada: 8°C
Umidità: 38%
Barometro: 1020 hPa
Nuvole: Few Clouds
Visibility: 10 km
Cloud details: Few Clouds 1219 m
2021/09/22 11:55 LIBA 221155Z 31015KT 9999 FEW040 23/08 Q1020 RMK SCT VIS MIN 9999 WIND THR11 30012KT WIND THR29 /////KT BLU
LIBF - Foggia/Gino Lisa, Italy
Distance from station: ONO 84km
Dati ricevuti: 22/09/2021 14:10
Few Clouds
Few Clouds
 Vento da NO
Vento: NO 33 km/h, Raffica: 54 km/h
Temperatura: 23°C
P.to Rugiada: 8°C
Umidità: 38%
Barometro: 1020 hPa
Nuvole: Few Clouds
Visibility: 10 km
Cloud details: Few Clouds 1524 m
2021/09/22 12:10 LIBF 221210Z 32018G29KT 300V360 9999 FEW050 23/08 Q1020
 
LIBH - Marina Di Ginosa, Italy
Distance from station: SSE 97km
Dati ricevuti: 22/09/2021 13:55
Molto nuvoloso
Molto nuvoloso
 Vento da NNO
Vento: NNO 24 km/h, Raffica: 44 km/h
Temperatura: 29°C
P.to Rugiada: 13°C
Umidità: 37%
Barometro: 1018 hPa
Nuvole: Molto nuvoloso
Visibility: 10 km
Cloud details: Molto nuvoloso 914 m
2021/09/22 11:55 LIBH 221155Z 34013G24KT 9999 BKN030 29/13 Q1018 RMK BKN QUK 2 QUL 1 E VIS MAR 25 KM VIS MIN 9999
LIRT - Trevico, Italy
Distance from station: OSO 109km
Dati ricevuti: 21/09/2021 15:55
DATI Obsoleti
Parz. nuvoloso
Parz. nuvoloso
 Vento da SSO
Vento: SSO 11 km/h
Temperatura: 19°C
P.to Rugiada: 5°C
Umidità: 40%
Barometro: 1024 hPa
Nuvole: Parz. nuvoloso
Visibility: 10 km
Cloud details: Parz. nuvoloso 305 m
2021/09/21 13:55 LIRT 211355Z 20006KT 9999 SCT010 19/05 Q1024
 
LIBG - Grottaglie(Civ/A, Italy
Distance from station: SE 110km
Dati ricevuti: 22/09/2021 13:50
Few Clouds
Few Clouds
 Vento da N
Vento: N 26 km/h
Temperatura: 25°C
P.to Rugiada: 13°C
Umidità: 47%
Barometro: 1018 hPa
Nuvole: Few Clouds
Visibility: 10 km
Cloud details: Few Clouds 1067 m
2021/09/22 11:50 LIBG 221150Z 35014KT 320V020 9999 FEW035 25/13 Q1018
LIBR - Brindisi/Casale, Italy
Distance from station: ESE 139km
Dati ricevuti: 22/09/2021 14:20
Few Clouds
Few Clouds
 Vento da NNO
Vento: NNO 30 km/h
Temperatura: 24°C
P.to Rugiada: 10°C
Umidità: 41%
Barometro: 1018 hPa
Nuvole: Few Clouds
Visibility: 10 km
Cloud details: Few Clouds 914 m
2021/09/22 12:20 LIBR 221220Z 34016KT 9999 FEW030 24/10 Q1018
 
LIRI - Pontecagnano (af, Italy
Distance from station: OSO 149km
Dati ricevuti: 22/09/2021 13:50
Sereno
Sereno
 Vento da OSO
Vento: OSO 17 km/h
Temperatura: 28°C
P.to Rugiada: 12°C
Umidità: 37%
Barometro: 1018 hPa
Summary: Sereno
Visibility: superiore a 10 km
2021/09/22 11:50 LIRI 221150Z 24009KT 210V280 CAVOK 28/12 Q1018
LIBN - Lecce (it-Afb), Italy
Distance from station: SE 179km
Dati ricevuti: 22/09/2021 13:55
Parz. nuvoloso
Parz. nuvoloso
 Vento da NNO
Vento: NNO 28 km/h
Temperatura: 25°C
P.to Rugiada: 16°C
Umidità: 57%
Barometro: 1018 hPa
Nuvole: Parz. nuvoloso
Visibility: 10 km
Cloud details: Parz. nuvoloso 1219 m
2021/09/22 11:55 LIBN 221155Z 33015KT 9999 SCT040 25/16 Q1018 RMK BKN SCT200 VIS MIN 9999 WIND THR14 33015KT WIND THR32 33015KT BLU
 
LIRN - Naples/Capodichi, Italy
Distance from station: OSO 188km
Dati ricevuti: 22/09/2021 14:20
Sereno
Sereno
 Vento da NE
Vento: NE 17 km/h
Temperatura: 27°C
P.to Rugiada: 11°C
Umidità: 37%
Barometro: 1019 hPa
Summary: Sereno
Visibility: superiore a 10 km
2021/09/22 12:20 LIRN 221220Z 05009KT 310V110 CAVOK 27/11 Q1019 NOSIG